Terminal Aerodrome Forecast
Issued by NWS

Home | Current Version | Previous Version | Text Only | Print | Product List | Glossary On
Versions: 1 2 3 4 5 6 7 8 9 10 11 12 13 14 15 16 17 18 19 20 21 22 23 24 25 26 27 28 29 30 31
000
FTUS46 KMTR 221200 CCA
TAFSFO
TAF COR
KSFO 221203Z 2212/2318 23006KT P6SM -SHRA VCTS FEW008 BKN018CB
      TEMPO 2212/2216 VRB05KT TSRA FEW008 BKN018CB
     FM221600 26006KT P6SM VCSH SCT012 BKN180
     FM221900 27016KT P6SM FEW015 SCT180
     FM230400 26011KT P6SM FEW015
     FM230800 26009KT P6SM OVC015=

USA.gov is the U.S. government's official web portal to all federal, state and local government web resources and services.